Terminal Aerodrome Forecast
Issued by NWS St Louis, MO

Home | Current Version | Previous Version | Text Only | Print | Product List | Glossary On
Versions: 1 2 3 4 5 6 7 8 9 10 11 12 13 14 15 16 17 18 19 20 21 22
000
FTUS43 KLSX 080254 AAB
TAFSTL
TAF AMD
KSTL 080254Z 0803/0906 28009KT P6SM BKN100
     FM080800 29011KT P6SM BKN025
     FM081000 29012G25KT P6SM -SHSN BKN025
     FM090000 31019G27KT P6SM BKN025=

USA.gov is the U.S. government's official web portal to all federal, state and local government web resources and services.